createdAt,value
2023-09-16T00:02:13.206Z,74.07
2023-09-16T00:07:16.057Z,74.27
2023-09-16T00:12:18.572Z,74.58
2023-09-16T00:17:21.189Z,74.00
2023-09-16T00:22:23.782Z,74.33
2023-09-16T00:27:27.637Z,74.00
2023-09-16T00:32:30.265Z,73.83
2023-09-16T00:37:33.132Z,73.85
2023-09-16T00:42:39.819Z,74.15
2023-09-16T00:47:43.537Z,74.13
2023-09-16T00:52:54.190Z,74.08
2023-09-16T00:57:59.719Z,74.21
2023-09-16T01:08:24.174Z,73.94
2023-09-16T01:13:27.256Z,73.83
2023-09-16T01:18:36.551Z,73.89
2023-09-16T01:23:39.608Z,73.69
2023-09-16T01:28:42.043Z,73.61
2023-09-16T01:33:53.124Z,73.72
2023-09-16T01:39:02.060Z,73.51
2023-09-16T01:44:05.777Z,73.55
2023-09-16T01:49:08.334Z,73.48
2023-09-16T01:54:12.085Z,73.80
2023-09-16T01:59:14.754Z,73.97
2023-09-16T02:04:18.321Z,74.28
2023-09-16T02:09:21.724Z,73.83
2023-09-16T02:14:25.026Z,74.42
2023-09-16T02:19:28.448Z,74.29
2023-09-16T02:24:32.395Z,74.37
2023-09-16T02:29:35.624Z,74.38
2023-09-16T02:34:38.240Z,74.15
2023-09-16T02:39:41.036Z,74.27
2023-09-16T02:44:43.874Z,74.36
2023-09-16T02:49:46.487Z,74.66
2023-09-16T02:54:49.055Z,74.41
2023-09-16T02:59:53.525Z,74.27
2023-09-16T03:04:58.019Z,73.74
2023-09-16T03:10:01.386Z,73.84
2023-09-16T03:15:06.530Z,73.41
2023-09-16T03:20:09.621Z,72.96
2023-09-16T03:25:12.621Z,72.02
2023-09-16T03:30:19.200Z,71.94
2023-09-16T03:35:26.192Z,71.28
2023-09-16T03:40:29.545Z,71.20
2023-09-16T03:45:32.262Z,71.16
2023-09-16T03:50:37.559Z,70.80
2023-09-16T03:55:40.390Z,70.29
2023-09-16T04:00:43.081Z,70.01
2023-09-16T04:05:45.670Z,68.83
2023-09-16T04:10:49.509Z,68.24
2023-09-16T04:15:52.395Z,66.75
2023-09-16T04:20:56.921Z,65.12
2023-09-16T04:26:01.922Z,63.67
2023-09-16T04:31:05.963Z,62.80
2023-09-16T04:36:12.135Z,62.96
2023-09-16T04:41:15.485Z,62.53
2023-09-16T04:46:19.912Z,61.62
2023-09-16T04:51:23.288Z,58.87
2023-09-16T04:56:25.986Z,55.81
2023-09-16T05:01:33.152Z,51.89
2023-09-16T05:06:35.811Z,51.41
2023-09-16T05:11:38.737Z,48.63
2023-09-16T05:16:41.324Z,44.96
2023-09-16T05:21:45.321Z,45.10
2023-09-16T05:26:48.750Z,46.57
2023-09-16T05:31:51.492Z,45.39
2023-09-16T05:36:54.313Z,44.60
2023-09-16T05:41:56.837Z,42.90
2023-09-16T05:47:02.016Z,41.00
2023-09-16T05:52:06.392Z,40.04
2023-09-16T05:57:08.915Z,37.92
2023-09-16T06:02:12.115Z,36.04
2023-09-16T06:07:14.826Z,35.45
2023-09-16T06:12:17.474Z,36.38
2023-09-16T06:17:21.015Z,34.06
2023-09-16T06:22:25.127Z,33.14
2023-09-16T06:27:27.780Z,33.18
2023-09-16T06:32:30.817Z,31.93
2023-09-16T06:37:33.526Z,31.99
2023-09-16T06:42:36.599Z,31.37
2023-09-16T06:47:39.145Z,30.75
2023-09-16T06:52:41.633Z,30.38
2023-09-16T06:57:45.242Z,29.15
2023-09-16T07:02:47.737Z,28.44
2023-09-16T07:07:50.248Z,27.97
2023-09-16T07:12:52.879Z,29.36
2023-09-16T07:17:55.360Z,30.96
2023-09-16T07:22:58.482Z,29.83
2023-09-16T07:28:02.387Z,30.37
2023-09-16T07:33:05.104Z,30.19
2023-09-16T07:38:07.925Z,28.95
2023-09-16T07:43:12.655Z,28.76
2023-09-16T07:48:16.151Z,28.54
2023-09-16T07:53:19.058Z,28.71
2023-09-16T07:58:21.647Z,29.09
2023-09-16T08:03:24.409Z,29.62
2023-09-16T08:08:27.037Z,29.93
2023-09-16T08:13:29.548Z,31.06
2023-09-16T08:18:31.990Z,31.16
2023-09-16T08:23:34.557Z,31.06
2023-09-16T08:28:39.825Z,31.71
2023-09-16T08:33:42.402Z,32.10
2023-09-16T08:38:45.056Z,32.27
2023-09-16T08:43:49.446Z,31.68
2023-09-16T08:48:56.883Z,30.12
2023-09-16T08:54:02.177Z,27.76
2023-09-16T08:59:04.803Z,28.15
2023-09-16T09:04:07.693Z,27.94
2023-09-16T09:09:10.383Z,26.80
2023-09-16T09:14:13.954Z,28.35
2023-09-16T09:19:17.006Z,29.27
2023-09-16T09:24:19.353Z,28.80
2023-09-16T09:29:23.478Z,29.86
2023-09-16T09:34:30.049Z,31.35
2023-09-16T09:39:32.869Z,32.92
2023-09-16T09:44:35.963Z,33.30
2023-09-16T09:49:38.538Z,33.36
2023-09-16T09:54:41.468Z,31.14
2023-09-16T09:59:44.041Z,29.92
2023-09-16T10:04:48.553Z,28.75
2023-09-16T10:09:52.032Z,27.06
2023-09-16T10:14:54.997Z,26.36
2023-09-16T10:19:57.570Z,25.15
2023-09-16T10:25:00.820Z,25.21
2023-09-16T10:30:04.333Z,26.41
2023-09-16T10:35:08.168Z,27.84
2023-09-16T10:40:12.111Z,29.39
2023-09-16T10:45:17.196Z,28.42
2023-09-16T10:50:22.881Z,28.58
2023-09-16T10:55:25.776Z,29.11
2023-09-16T11:00:32.821Z,29.20
2023-09-16T11:05:37.981Z,30.02
2023-09-16T11:10:42.106Z,31.27
2023-09-16T11:15:48.074Z,32.27
2023-09-16T11:20:52.173Z,31.26
2023-09-16T11:25:57.932Z,31.97
2023-09-16T11:31:03.555Z,31.13
2023-09-16T11:36:17.115Z,31.06
2023-09-16T11:41:20.086Z,31.51
2023-09-16T11:46:22.831Z,33.05
2023-09-16T11:51:27.077Z,32.76
2023-09-16T11:56:32.622Z,33.79
2023-09-16T12:01:38.119Z,33.24
2023-09-16T12:06:40.964Z,34.37
2023-09-16T12:11:45.165Z,34.12
2023-09-16T12:16:48.578Z,34.30
2023-09-16T12:21:51.646Z,35.89
2023-09-16T12:26:54.318Z,35.39
2023-09-16T12:32:12.154Z,36.02
2023-09-16T12:37:17.431Z,36.60
2023-09-16T12:42:20.071Z,37.48
2023-09-16T12:47:23.121Z,37.22
2023-09-16T12:52:25.983Z,37.12
2023-09-16T12:57:28.518Z,36.72
2023-09-16T13:02:37.053Z,36.75
2023-09-16T13:07:39.968Z,36.01
2023-09-16T13:12:45.606Z,36.18
2023-09-16T13:17:59.418Z,37.67
2023-09-16T13:23:01.935Z,38.08
2023-09-16T13:28:11.179Z,38.58
2023-09-16T13:33:14.108Z,39.30
2023-09-16T13:38:16.636Z,39.47
2023-09-16T13:43:19.772Z,39.74
2023-09-16T13:48:25.000Z,39.57
2023-09-16T13:53:28.173Z,39.15
2023-09-16T13:58:30.772Z,40.13
2023-09-16T14:03:33.840Z,40.18
2023-09-16T14:08:36.606Z,40.49
2023-09-16T14:13:39.469Z,40.37
2023-09-16T14:18:41.998Z,40.63
2023-09-16T14:23:44.479Z,41.04
2023-09-16T14:28:46.999Z,41.27
2023-09-16T14:33:49.497Z,41.33
2023-09-16T14:38:54.135Z,41.62
2023-09-16T14:43:56.758Z,41.73
2023-09-16T14:48:59.303Z,42.49
2023-09-16T14:54:04.092Z,42.87
2023-09-16T14:59:06.719Z,43.14
2023-09-16T15:04:09.275Z,43.22
2023-09-16T15:09:11.799Z,43.46
2023-09-16T15:14:15.028Z,43.82
2023-09-16T15:19:17.822Z,44.30
2023-09-16T15:24:20.377Z,44.31
2023-09-16T15:29:23.155Z,44.79
2023-09-16T15:34:25.747Z,45.35
2023-09-16T15:39:28.286Z,46.28
2023-09-16T15:44:30.768Z,46.53
2023-09-16T15:49:35.587Z,47.51
2023-09-16T15:54:38.204Z,48.18
2023-09-16T15:59:40.740Z,48.59
2023-09-16T16:04:43.301Z,48.71
2023-09-16T16:09:52.161Z,49.63
2023-09-16T16:14:54.751Z,49.44
2023-09-16T16:19:57.536Z,49.56
2023-09-16T16:25:00.196Z,49.63
2023-09-16T16:30:07.176Z,50.10
2023-09-16T16:35:09.928Z,50.30
2023-09-16T16:40:12.718Z,49.97
2023-09-16T16:45:15.744Z,50.28
2023-09-16T16:50:18.403Z,50.42
2023-09-16T16:55:20.921Z,50.68
2023-09-16T17:00:23.487Z,51.17
2023-09-16T17:05:27.438Z,52.22
2023-09-16T17:10:30.862Z,52.63
2023-09-16T17:15:33.488Z,52.69
2023-09-16T17:20:36.316Z,52.95
2023-09-16T17:25:39.867Z,52.96
2023-09-16T17:30:43.665Z,52.32
2023-09-16T17:35:48.067Z,51.96
2023-09-16T17:40:50.602Z,51.63
2023-09-16T17:45:53.199Z,51.90
2023-09-16T17:50:57.165Z,52.67
2023-09-16T17:56:01.256Z,53.77
2023-09-16T18:01:05.721Z,54.74
2023-09-16T18:06:08.538Z,55.29
2023-09-16T18:11:11.024Z,55.87
2023-09-16T18:16:13.716Z,56.50
2023-09-16T18:21:16.322Z,56.95
2023-09-16T18:26:19.742Z,57.02
2023-09-16T18:31:23.267Z,57.43
2023-09-16T18:36:26.023Z,57.86
2023-09-16T18:41:29.418Z,58.03
2023-09-16T18:46:33.846Z,58.82
2023-09-16T18:51:36.529Z,59.83
2023-09-16T18:56:39.056Z,59.79
2023-09-16T19:01:41.639Z,60.28
2023-09-16T19:06:44.566Z,60.56
2023-09-16T19:11:48.447Z,61.37
2023-09-16T19:16:51.166Z,60.92
2023-09-16T19:21:53.765Z,61.19
2023-09-16T19:26:56.211Z,61.18
2023-09-16T19:32:00.855Z,61.16
2023-09-16T19:37:03.701Z,61.17
2023-09-16T19:42:06.952Z,61.11
2023-09-16T19:47:09.611Z,61.28
2023-09-16T19:52:12.238Z,60.96
2023-09-16T19:57:14.785Z,61.49
2023-09-16T20:02:17.442Z,62.16
2023-09-16T20:07:20.401Z,62.54
2023-09-16T20:12:22.953Z,62.52
2023-09-16T20:17:25.675Z,62.33
2023-09-16T20:22:28.194Z,62.38
2023-09-16T20:27:31.158Z,62.62
2023-09-16T20:32:33.776Z,63.12
2023-09-16T20:37:38.086Z,62.72
2023-09-16T20:42:40.924Z,63.42
2023-09-16T20:47:43.450Z,63.35
2023-09-16T20:52:45.923Z,63.93
2023-09-16T20:57:48.337Z,64.03
2023-09-16T21:02:51.011Z,63.66
2023-09-16T21:07:53.733Z,63.58
2023-09-16T21:12:57.097Z,63.65
2023-09-16T21:17:59.642Z,62.96
2023-09-16T21:23:02.145Z,63.13
2023-09-16T21:28:05.132Z,63.00
2023-09-16T21:33:08.926Z,62.09
2023-09-16T21:38:11.509Z,62.49
2023-09-16T21:43:15.192Z,62.65
2023-09-16T21:48:18.064Z,62.94
2023-09-16T21:53:21.039Z,62.67
2023-09-16T21:58:23.630Z,63.28
2023-09-16T22:11:01.652Z,62.98
2023-09-16T22:16:04.242Z,63.26
2023-09-16T22:21:10.006Z,63.07
2023-09-16T22:26:12.502Z,63.10
2023-09-16T22:31:19.044Z,62.68
2023-09-16T22:36:21.669Z,62.63
2023-09-16T22:41:24.337Z,63.09
2023-09-16T22:46:27.400Z,63.39
2023-09-16T22:51:30.036Z,63.44
2023-09-16T22:56:36.075Z,63.46
2023-09-16T23:01:39.154Z,64.37
2023-09-16T23:06:41.728Z,64.41
2023-09-16T23:11:44.252Z,65.13
2023-09-16T23:16:46.886Z,65.56
2023-09-16T23:21:49.689Z,65.78
2023-09-16T23:26:52.204Z,66.00
2023-09-16T23:31:54.741Z,66.18
2023-09-16T23:36:57.364Z,66.50
2023-09-16T23:42:00.126Z,66.18
2023-09-16T23:47:02.745Z,66.63
2023-09-16T23:52:05.766Z,66.99
2023-09-16T23:57:08.982Z,67.04
